createdAt,value
2018-08-16T00:01:23.405Z,17.80
2018-08-16T00:03:51.047Z,17.80
2018-08-16T00:06:18.523Z,17.80
2018-08-16T00:08:45.979Z,17.70
2018-08-16T00:11:13.241Z,17.60
2018-08-16T00:13:40.543Z,17.70
2018-08-16T00:16:07.941Z,17.60
2018-08-16T00:18:35.191Z,17.60
2018-08-16T00:21:02.448Z,17.60
2018-08-16T00:23:29.670Z,17.50
2018-08-16T00:25:57.042Z,17.50
2018-08-16T00:28:24.340Z,17.40
2018-08-16T00:30:51.848Z,17.40
2018-08-16T00:33:19.027Z,17.40
2018-08-16T00:35:46.278Z,17.40
2018-08-16T00:38:13.607Z,17.30
2018-08-16T00:40:40.906Z,17.30
2018-08-16T00:43:08.323Z,17.30
2018-08-16T00:45:35.577Z,17.30
2018-08-16T00:48:02.941Z,17.30
2018-08-16T00:50:30.172Z,17.30
2018-08-16T00:52:57.641Z,17.30
2018-08-16T00:55:24.917Z,17.30
2018-08-16T00:57:52.195Z,17.30
2018-08-16T01:00:19.652Z,17.30
2018-08-16T01:02:46.911Z,17.30
2018-08-16T01:05:14.392Z,17.20
2018-08-16T01:07:42.163Z,17.20
2018-08-16T01:10:11.051Z,17.20
2018-08-16T01:12:38.364Z,17.20
2018-08-16T01:15:09.588Z,17.20
2018-08-16T01:17:36.851Z,17.20
2018-08-16T01:20:04.256Z,17.20
2018-08-16T01:22:31.517Z,17.10
2018-08-16T01:24:58.767Z,17.10
2018-08-16T01:27:26.054Z,17.10
2018-08-16T01:29:53.276Z,17.10
2018-08-16T01:32:20.547Z,17.00
2018-08-16T01:34:47.787Z,17.00
2018-08-16T01:37:15.005Z,17.20
2018-08-16T01:39:42.271Z,17.10
2018-08-16T01:42:09.518Z,17.10
2018-08-16T01:44:37.179Z,17.00
2018-08-16T01:47:04.396Z,17.00
2018-08-16T01:49:34.803Z,16.90
2018-08-16T01:52:02.203Z,16.90
2018-08-16T01:54:30.336Z,16.90
2018-08-16T01:56:58.619Z,16.90
2018-08-16T01:59:26.078Z,16.80
2018-08-16T02:01:53.377Z,16.80
2018-08-16T02:04:20.676Z,16.80
2018-08-16T02:06:49.004Z,16.80
2018-08-16T02:09:16.346Z,16.80
2018-08-16T02:11:43.669Z,16.70
2018-08-16T02:14:10.911Z,16.70
2018-08-16T02:16:38.848Z,16.70
2018-08-16T02:19:06.149Z,16.80
2018-08-16T02:21:34.863Z,16.70
2018-08-16T02:24:03.475Z,16.70
2018-08-16T02:26:30.910Z,16.70
2018-08-16T02:28:58.341Z,16.70
2018-08-16T02:31:25.669Z,16.60
2018-08-16T02:33:53.328Z,16.60
2018-08-16T02:36:20.584Z,16.60
2018-08-16T02:38:47.911Z,16.60
2018-08-16T02:41:15.339Z,16.60
2018-08-16T02:43:42.567Z,16.50
2018-08-16T02:46:09.918Z,16.50
2018-08-16T02:48:37.902Z,16.50
2018-08-16T02:51:05.188Z,16.50
2018-08-16T02:53:33.341Z,16.50
2018-08-16T02:56:00.728Z,16.50
2018-08-16T02:58:28.014Z,16.50
2018-08-16T03:00:55.286Z,16.40
2018-08-16T03:03:22.548Z,16.40
2018-08-16T03:05:49.756Z,16.40
2018-08-16T03:08:17.095Z,16.50
2018-08-16T03:10:44.313Z,16.60
2018-08-16T03:13:12.080Z,16.60
2018-08-16T03:15:39.469Z,16.70
2018-08-16T03:18:06.748Z,16.70
2018-08-16T03:20:34.051Z,16.70
2018-08-16T03:23:02.251Z,16.60
2018-08-16T03:25:30.497Z,16.60
2018-08-16T03:27:58.474Z,16.50
2018-08-16T03:30:25.701Z,16.50
2018-08-16T03:32:53.003Z,16.50
2018-08-16T03:35:20.416Z,16.40
2018-08-16T03:37:47.696Z,16.40
2018-08-16T03:40:14.944Z,16.40
2018-08-16T03:42:42.217Z,16.40
2018-08-16T03:45:09.433Z,16.40
2018-08-16T03:47:36.821Z,16.50
2018-08-16T03:50:04.747Z,16.50
2018-08-16T03:52:31.970Z,16.60
2018-08-16T03:54:59.223Z,16.60
2018-08-16T03:57:26.501Z,16.60
2018-08-16T03:59:53.799Z,16.60
2018-08-16T04:02:50.095Z,16.60
2018-08-16T04:05:17.372Z,16.60
2018-08-16T04:07:44.613Z,16.60
2018-08-16T04:10:11.846Z,16.60
2018-08-16T04:12:39.121Z,16.50
2018-08-16T04:15:06.420Z,16.50
2018-08-16T04:17:36.088Z,16.50
2018-08-16T04:20:04.563Z,16.40
2018-08-16T04:22:31.858Z,16.40
2018-08-16T04:24:59.227Z,16.40
2018-08-16T04:27:27.097Z,16.30
2018-08-16T04:29:54.396Z,16.40
2018-08-16T04:32:21.936Z,16.40
2018-08-16T04:34:49.216Z,16.30
2018-08-16T04:37:16.860Z,16.40
2018-08-16T04:39:44.263Z,16.40
2018-08-16T04:42:11.941Z,16.40
2018-08-16T04:44:39.300Z,16.50
2018-08-16T04:47:06.708Z,16.50
2018-08-16T04:49:34.827Z,16.50
2018-08-16T04:52:02.264Z,16.60
2018-08-16T04:54:30.711Z,16.80
2018-08-16T04:56:58.033Z,16.80
2018-08-16T04:59:25.292Z,16.80
2018-08-16T05:01:52.797Z,16.80
2018-08-16T05:04:20.445Z,16.80
2018-08-16T05:06:47.772Z,16.90
2018-08-16T05:09:15.149Z,16.90
2018-08-16T05:11:42.438Z,17.00
2018-08-16T05:14:10.670Z,17.00
2018-08-16T05:16:39.784Z,17.00
2018-08-16T05:19:07.347Z,17.00
2018-08-16T05:21:35.004Z,17.10
2018-08-16T05:24:02.378Z,17.20
2018-08-16T05:26:29.642Z,17.30
2018-08-16T05:28:57.380Z,17.40
2018-08-16T05:31:24.710Z,17.40
2018-08-16T05:33:52.101Z,17.50
2018-08-16T05:36:19.446Z,17.60
2018-08-16T05:38:46.855Z,17.60
2018-08-16T05:41:14.227Z,17.70
2018-08-16T05:43:41.514Z,17.80
2018-08-16T05:46:09.090Z,17.80
2018-08-16T05:48:37.292Z,17.80
2018-08-16T05:51:05.218Z,17.80
2018-08-16T05:53:32.521Z,17.90
2018-08-16T05:55:59.876Z,17.90
2018-08-16T05:58:27.195Z,18.00
2018-08-16T06:00:54.535Z,18.00
2018-08-16T06:03:21.872Z,18.10
2018-08-16T06:05:49.226Z,18.10
2018-08-16T06:08:16.591Z,18.10
2018-08-16T06:10:43.996Z,18.10
2018-08-16T06:13:11.365Z,18.20
2018-08-16T06:15:38.856Z,18.20
2018-08-16T06:18:06.255Z,18.30
2018-08-16T06:20:33.525Z,18.40
2018-08-16T06:23:00.899Z,18.50
2018-08-16T06:25:28.228Z,18.50
2018-08-16T06:27:55.576Z,18.60
2018-08-16T06:30:23.155Z,18.70
2018-08-16T06:32:50.485Z,18.90
2018-08-16T06:35:18.270Z,18.90
2018-08-16T06:37:45.607Z,19.10
2018-08-16T06:40:16.636Z,19.20
2018-08-16T06:42:44.779Z,19.30
2018-08-16T06:45:12.073Z,19.40
2018-08-16T06:47:39.358Z,19.50
2018-08-16T06:50:07.204Z,19.70
2018-08-16T06:52:34.702Z,19.80
2018-08-16T06:55:02.952Z,19.90
2018-08-16T06:57:30.328Z,20.00
2018-08-16T06:59:57.600Z,20.10
2018-08-16T07:02:25.028Z,20.30
2018-08-16T07:04:52.371Z,20.50
2018-08-16T07:07:19.675Z,20.70
2018-08-16T07:09:46.990Z,21.00
2018-08-16T07:12:14.437Z,21.30
2018-08-16T07:14:41.663Z,21.60
2018-08-16T07:17:09.147Z,21.80
2018-08-16T07:19:36.822Z,22.00
2018-08-16T07:22:04.156Z,22.20
2018-08-16T07:24:31.428Z,22.40
2018-08-16T07:26:59.542Z,22.60
2018-08-16T07:29:27.008Z,22.70
2018-08-16T07:31:54.708Z,22.70
2018-08-16T07:34:22.107Z,22.70
2018-08-16T07:36:49.645Z,22.70
2018-08-16T07:39:17.008Z,22.60
2018-08-16T07:41:44.362Z,22.60
2018-08-16T07:44:11.791Z,22.40
2018-08-16T07:46:39.210Z,22.40
2018-08-16T07:49:06.538Z,22.40
2018-08-16T07:51:34.278Z,22.40
2018-08-16T07:54:01.761Z,22.40
2018-08-16T07:56:29.116Z,22.50
2018-08-16T07:58:56.464Z,22.60
2018-08-16T08:01:23.833Z,22.50
2018-08-16T08:03:51.236Z,22.60
2018-08-16T08:06:19.007Z,22.60
2018-08-16T08:08:46.320Z,22.60
2018-08-16T08:11:13.580Z,22.70
2018-08-16T08:13:41.363Z,22.60
2018-08-16T08:16:08.822Z,22.70
2018-08-16T08:18:36.175Z,22.90
2018-08-16T08:21:03.548Z,22.90
2018-08-16T08:23:30.832Z,23.00
2018-08-16T08:25:58.125Z,23.10
2018-08-16T08:28:25.399Z,23.40
2018-08-16T08:30:58.321Z,23.30
2018-08-16T08:33:26.188Z,23.40
2018-08-16T08:36:04.876Z,23.60
2018-08-16T08:38:32.165Z,23.70
2018-08-16T08:40:59.494Z,23.70
2018-08-16T08:43:38.254Z,23.80
2018-08-16T08:46:07.388Z,24.00
2018-08-16T08:48:34.715Z,24.00
2018-08-16T08:51:02.093Z,24.20
2018-08-16T08:55:10.200Z,24.10
2018-08-16T08:57:48.968Z,23.90
2018-08-16T09:00:16.352Z,23.50
2018-08-16T09:02:43.779Z,23.50
2018-08-16T09:05:11.044Z,23.40
2018-08-16T09:07:38.409Z,23.40
2018-08-16T09:11:16.448Z,23.40
2018-08-16T09:13:56.797Z,23.60
2018-08-16T09:16:28.353Z,23.60
2018-08-16T09:18:56.146Z,23.60
2018-08-16T09:21:23.383Z,23.70
2018-08-16T09:23:51.261Z,23.80
2018-08-16T09:26:24.176Z,24.10
2018-08-16T09:28:51.601Z,24.40
2018-08-16T09:31:30.506Z,24.50
2018-08-16T09:34:12.973Z,24.40
2018-08-16T09:36:40.381Z,24.50
2018-08-16T09:39:09.193Z,24.80
2018-08-16T09:41:37.525Z,24.80
2018-08-16T09:44:05.516Z,24.60
2018-08-16T09:46:58.865Z,24.30
2018-08-16T09:49:26.614Z,24.50
2018-08-16T09:51:54.000Z,24.50
2018-08-16T09:54:28.338Z,24.80
2018-08-16T09:56:57.700Z,25.10
2018-08-16T09:59:25.053Z,25.40
2018-08-16T10:01:52.410Z,25.40
2018-08-16T10:04:19.805Z,25.50
2018-08-16T10:06:47.515Z,25.40
2018-08-16T10:09:16.670Z,25.50
2018-08-16T10:11:44.578Z,25.40
2018-08-16T10:14:11.928Z,25.50
2018-08-16T10:16:39.264Z,25.20
2018-08-16T10:19:06.636Z,25.60
2018-08-16T10:21:33.994Z,25.60
2018-08-16T10:24:02.944Z,25.70
2018-08-16T10:26:30.188Z,25.80
2018-08-16T10:28:57.424Z,25.90
2018-08-16T10:31:24.835Z,26.20
2018-08-16T10:33:52.337Z,26.40
2018-08-16T10:36:19.794Z,26.50
2018-08-16T10:38:47.212Z,26.50
2018-08-16T10:41:14.579Z,26.60
2018-08-16T10:43:42.052Z,26.30
2018-08-16T10:46:09.407Z,26.40
2018-08-16T10:48:36.791Z,26.30
2018-08-16T10:51:04.259Z,26.40
2018-08-16T10:53:32.428Z,26.70
2018-08-16T10:56:00.423Z,27.00
2018-08-16T10:58:27.829Z,26.80
2018-08-16T11:00:55.577Z,26.60
2018-08-16T11:03:24.087Z,26.30
2018-08-16T11:05:52.082Z,26.30
2018-08-16T11:08:20.388Z,26.90
2018-08-16T11:10:48.089Z,26.50
2018-08-16T11:13:15.451Z,26.60
2018-08-16T11:15:42.227Z,26.50
2018-08-16T11:18:09.815Z,27.20
2018-08-16T11:20:36.707Z,27.40
2018-08-16T11:23:04.781Z,28.00
2018-08-16T11:25:32.132Z,27.60
2018-08-16T11:27:59.385Z,27.50
2018-08-16T11:30:26.210Z,28.00
2018-08-16T11:32:53.972Z,28.50
2018-08-16T11:35:21.257Z,29.30
2018-08-16T11:37:48.664Z,29.90
2018-08-16T11:40:16.016Z,29.60
2018-08-16T11:42:43.348Z,30.00
2018-08-16T11:45:10.674Z,30.20
2018-08-16T11:47:38.296Z,30.90
2018-08-16T11:50:05.999Z,29.30
2018-08-16T11:52:33.356Z,30.60
2018-08-16T11:55:00.094Z,30.30
2018-08-16T11:57:27.355Z,31.60
2018-08-16T11:59:54.208Z,32.50
2018-08-16T12:02:21.013Z,33.30
2018-08-16T12:04:47.940Z,32.60
2018-08-16T12:07:14.783Z,33.80
2018-08-16T12:09:41.859Z,31.60
2018-08-16T12:12:08.611Z,30.90
2018-08-16T12:14:35.478Z,32.40
2018-08-16T12:17:02.355Z,31.40
2018-08-16T12:19:29.648Z,32.10
2018-08-16T12:21:56.943Z,32.40
2018-08-16T12:24:25.252Z,33.00
2018-08-16T12:26:52.530Z,35.50
2018-08-16T12:29:21.839Z,35.90
2018-08-16T12:31:49.140Z,36.80
2018-08-16T12:34:16.492Z,37.50
2018-08-16T12:36:43.830Z,36.20
2018-08-16T12:39:11.191Z,35.40
2018-08-16T12:41:39.416Z,34.80
2018-08-16T12:44:06.786Z,36.40
2018-08-16T12:46:34.130Z,37.90
2018-08-16T12:49:01.433Z,38.10
2018-08-16T12:51:29.828Z,38.50
2018-08-16T12:53:57.265Z,37.60
2018-08-16T12:56:26.279Z,36.70
2018-08-16T12:58:53.278Z,35.30
2018-08-16T13:01:20.116Z,35.70
2018-08-16T13:03:46.860Z,36.70
2018-08-16T13:06:15.332Z,37.60
2018-08-16T13:08:42.833Z,38.60
2018-08-16T13:11:09.761Z,37.20
2018-08-16T13:13:37.068Z,38.40
2018-08-16T13:16:03.867Z,39.60
2018-08-16T13:18:30.630Z,38.80
2018-08-16T13:20:57.887Z,35.80
2018-08-16T13:23:25.246Z,37.30
2018-08-16T13:25:52.758Z,39.00
2018-08-16T13:28:20.047Z,35.80
2018-08-16T13:30:47.355Z,34.90
2018-08-16T13:33:14.695Z,35.00
2018-08-16T13:35:42.533Z,37.30
2018-08-16T13:38:09.824Z,37.50
2018-08-16T13:40:37.355Z,38.10
2018-08-16T13:43:05.166Z,36.90
2018-08-16T13:45:32.464Z,35.30
2018-08-16T13:48:00.150Z,34.90
2018-08-16T13:50:27.473Z,36.80
2018-08-16T13:52:54.795Z,38.20
2018-08-16T13:55:22.129Z,37.00
2018-08-16T13:57:49.439Z,39.10
2018-08-16T14:00:16.780Z,39.90
2018-08-16T14:02:44.015Z,38.90
2018-08-16T14:05:11.898Z,37.00
2018-08-16T14:07:39.156Z,38.50
2018-08-16T14:10:07.837Z,39.60
2018-08-16T14:12:35.248Z,38.60
2018-08-16T14:15:02.644Z,37.30
2018-08-16T14:17:29.953Z,37.80
2018-08-16T14:19:57.305Z,39.40
2018-08-16T14:22:24.668Z,40.20
2018-08-16T14:24:52.989Z,40.70
2018-08-16T14:27:20.247Z,38.10
2018-08-16T14:29:47.797Z,38.60
2018-08-16T14:32:15.310Z,38.80
2018-08-16T14:34:42.556Z,38.50
2018-08-16T14:37:09.924Z,37.30
2018-08-16T14:39:38.204Z,37.00
2018-08-16T14:42:06.199Z,37.70
2018-08-16T14:44:33.572Z,39.30
2018-08-16T14:47:01.026Z,38.50
2018-08-16T14:49:28.667Z,37.20
2018-08-16T14:51:55.896Z,37.00
2018-08-16T14:54:23.323Z,36.90
2018-08-16T14:56:50.705Z,36.60
2018-08-16T14:59:18.062Z,38.00
2018-08-16T15:01:45.592Z,37.20
2018-08-16T15:04:12.851Z,37.30
2018-08-16T15:06:40.265Z,38.30
2018-08-16T15:09:09.072Z,37.90
2018-08-16T15:11:36.543Z,40.30
2018-08-16T15:14:04.012Z,38.10
2018-08-16T15:16:31.315Z,39.80
2018-08-16T15:18:59.174Z,40.80
2018-08-16T15:21:26.630Z,40.30
2018-08-16T15:23:53.916Z,40.40
2018-08-16T15:26:21.230Z,37.50
2018-08-16T15:28:48.700Z,37.50
2018-08-16T15:31:16.447Z,36.80
2018-08-16T15:33:43.720Z,35.10
2018-08-16T15:36:11.205Z,34.70
2018-08-16T15:38:38.475Z,34.00
2018-08-16T15:41:07.223Z,33.30
2018-08-16T15:43:34.095Z,35.00
2018-08-16T15:46:01.240Z,35.50
2018-08-16T15:48:28.033Z,36.40
2018-08-16T15:50:54.770Z,35.60
2018-08-16T15:53:21.587Z,36.50
2018-08-16T15:55:48.453Z,36.70
2018-08-16T15:58:15.275Z,37.20
2018-08-16T16:00:42.052Z,35.40
2018-08-16T16:03:08.868Z,34.70
2018-08-16T16:05:35.844Z,34.80
2018-08-16T16:08:02.769Z,33.30
2018-08-16T16:10:29.479Z,33.00
2018-08-16T16:12:56.591Z,32.10
2018-08-16T16:15:23.939Z,32.10
2018-08-16T16:17:50.727Z,31.70
2018-08-16T16:20:17.483Z,30.80
2018-08-16T16:22:44.253Z,30.80
2018-08-16T16:25:11.090Z,30.50
2018-08-16T16:27:37.910Z,30.90
2018-08-16T16:30:07.102Z,30.50
2018-08-16T16:32:34.456Z,30.20
2018-08-16T16:35:01.776Z,30.30
2018-08-16T16:37:29.167Z,30.10
2018-08-16T16:39:56.519Z,29.90
2018-08-16T16:42:23.803Z,29.90
2018-08-16T16:44:51.272Z,29.70
2018-08-16T16:47:18.659Z,29.60
2018-08-16T16:49:46.012Z,29.40
2018-08-16T16:52:19.126Z,29.10
2018-08-16T16:54:46.495Z,29.00
2018-08-16T16:57:14.173Z,28.90
2018-08-16T16:59:41.645Z,28.70
2018-08-16T17:02:08.944Z,28.70
2018-08-16T17:04:36.163Z,28.80
2018-08-16T17:07:03.598Z,28.70
2018-08-16T17:09:30.871Z,28.50
2018-08-16T17:11:58.377Z,28.40
2018-08-16T17:14:25.739Z,28.30
2018-08-16T17:16:53.034Z,28.20
2018-08-16T17:19:20.582Z,28.40
2018-08-16T17:21:47.908Z,28.20
2018-08-16T17:24:15.138Z,28.10
2018-08-16T17:26:42.409Z,28.10
2018-08-16T17:29:09.679Z,28.30
2018-08-16T17:31:36.946Z,28.40
2018-08-16T17:34:04.607Z,28.30
2018-08-16T17:36:31.867Z,28.10
2018-08-16T17:38:59.223Z,28.10
2018-08-16T17:41:26.062Z,27.90
2018-08-16T17:43:53.061Z,27.80
2018-08-16T17:46:20.256Z,27.60
2018-08-16T17:48:52.140Z,27.50
2018-08-16T17:51:18.971Z,27.30
2018-08-16T17:53:45.775Z,27.30
2018-08-16T17:56:12.783Z,27.00
2018-08-16T17:58:39.568Z,26.80
2018-08-16T18:01:06.695Z,26.70
2018-08-16T18:03:33.565Z,26.60
2018-08-16T18:06:00.405Z,26.40
2018-08-16T18:08:28.135Z,26.30
2018-08-16T18:10:54.908Z,26.20
2018-08-16T18:13:22.700Z,26.10
2018-08-16T18:15:49.807Z,26.00
2018-08-16T18:18:16.563Z,26.00
2018-08-16T18:20:43.293Z,25.80
2018-08-16T18:23:10.136Z,25.80
2018-08-16T18:25:37.383Z,25.80
2018-08-16T18:28:04.823Z,25.80
2018-08-16T18:30:32.373Z,25.60
2018-08-16T18:32:59.678Z,25.60
2018-08-16T18:35:27.220Z,25.40
2018-08-16T18:37:54.012Z,25.30
2018-08-16T18:40:20.804Z,25.30
2018-08-16T18:42:47.546Z,25.20
2018-08-16T18:45:14.413Z,25.10
2018-08-16T18:47:41.176Z,24.90
2018-08-16T18:50:08.014Z,24.90
2018-08-16T18:52:35.471Z,24.70
2018-08-16T18:55:03.105Z,24.70
2018-08-16T18:57:30.542Z,24.60
2018-08-16T18:59:57.767Z,24.50
2018-08-16T19:02:25.096Z,24.50
2018-08-16T19:04:52.600Z,24.40
2018-08-16T19:07:19.835Z,24.30
2018-08-16T19:09:47.235Z,24.20
2018-08-16T19:12:14.838Z,24.20
2018-08-16T19:14:42.071Z,24.10
2018-08-16T19:17:09.427Z,24.00
2018-08-16T19:19:37.064Z,24.00
2018-08-16T19:22:04.396Z,23.90
2018-08-16T19:24:31.647Z,23.80
2018-08-16T19:27:00.965Z,23.80
2018-08-16T19:29:28.329Z,23.70
2018-08-16T19:31:55.562Z,23.60
2018-08-16T19:34:22.771Z,23.50
2018-08-16T19:36:49.997Z,23.40
2018-08-16T19:39:17.298Z,23.30
2018-08-16T19:41:44.927Z,23.30
2018-08-16T19:44:12.153Z,23.20
2018-08-16T19:46:39.347Z,23.10
2018-08-16T19:49:06.588Z,23.00
2018-08-16T19:51:33.863Z,23.00
2018-08-16T19:54:01.216Z,22.90
2018-08-16T19:56:28.610Z,22.90
2018-08-16T19:58:55.890Z,22.80
2018-08-16T20:01:23.263Z,22.70
2018-08-16T20:03:50.459Z,22.70
2018-08-16T20:06:17.983Z,22.60
2018-08-16T20:08:45.840Z,22.60
2018-08-16T20:11:13.051Z,22.50
2018-08-16T20:13:40.336Z,22.50
2018-08-16T20:16:07.581Z,22.40
2018-08-16T20:18:34.809Z,22.30
2018-08-16T20:21:02.054Z,22.20
2018-08-16T20:23:29.904Z,22.10
2018-08-16T20:25:57.206Z,22.10
2018-08-16T20:28:24.475Z,22.00
2018-08-16T20:30:51.689Z,21.90
2018-08-16T20:33:18.959Z,21.90
2018-08-16T20:35:46.207Z,21.80
2018-08-16T20:38:13.460Z,21.70
2018-08-16T20:40:40.675Z,21.70
2018-08-16T20:43:07.945Z,21.70
2018-08-16T20:45:35.146Z,21.50
2018-08-16T20:48:02.391Z,21.50
2018-08-16T20:50:29.962Z,21.50
2018-08-16T20:52:57.228Z,21.40
2018-08-16T20:55:24.453Z,21.40
2018-08-16T20:57:51.721Z,21.30
2018-08-16T21:00:18.882Z,21.30
2018-08-16T21:02:46.109Z,21.30
2018-08-16T21:05:13.398Z,21.20
2018-08-16T21:07:40.675Z,21.10
2018-08-16T21:10:09.212Z,21.10
2018-08-16T21:12:36.559Z,21.10
2018-08-16T21:15:04.798Z,21.00
2018-08-16T21:17:31.523Z,20.90
2018-08-16T21:19:58.270Z,20.80
2018-08-16T21:22:24.954Z,20.80
2018-08-16T21:24:51.681Z,20.70
2018-08-16T21:27:18.434Z,20.60
2018-08-16T21:29:45.265Z,20.60
2018-08-16T21:32:12.186Z,20.60
2018-08-16T21:34:39.004Z,20.50
2018-08-16T21:37:05.783Z,20.50
2018-08-16T21:39:32.525Z,20.40
2018-08-16T21:41:59.220Z,20.40
2018-08-16T21:44:26.022Z,20.40
2018-08-16T21:46:52.743Z,20.30
2018-08-16T21:49:19.439Z,20.30
2018-08-16T21:51:46.138Z,20.20
2018-08-16T21:54:12.850Z,20.10
2018-08-16T21:56:39.541Z,20.10
2018-08-16T21:59:06.270Z,20.10
2018-08-16T22:01:33.283Z,20.00
2018-08-16T22:03:59.942Z,20.00
2018-08-16T22:06:32.238Z,20.00
2018-08-16T22:08:59.146Z,19.90
2018-08-16T22:11:25.863Z,19.90
2018-08-16T22:13:52.564Z,19.90
2018-08-16T22:16:19.246Z,19.80
2018-08-16T22:18:45.950Z,19.80
2018-08-16T22:21:12.724Z,19.70
2018-08-16T22:23:39.442Z,19.70
2018-08-16T22:26:06.247Z,19.70
2018-08-16T22:28:32.998Z,19.70
2018-08-16T22:31:00.148Z,19.60
2018-08-16T22:33:26.938Z,19.60
2018-08-16T22:35:54.002Z,19.50
2018-08-16T22:38:20.762Z,19.50
2018-08-16T22:40:47.501Z,19.50
2018-08-16T22:43:14.186Z,19.50
2018-08-16T22:45:40.982Z,19.40
2018-08-16T22:48:07.700Z,19.40
2018-08-16T22:50:34.402Z,19.30
2018-08-16T22:53:01.414Z,19.30
2018-08-16T22:55:28.737Z,19.30
2018-08-16T22:57:55.447Z,19.30
2018-08-16T23:00:22.334Z,19.20
2018-08-16T23:02:49.038Z,19.20
2018-08-16T23:05:15.744Z,19.10
2018-08-16T23:07:42.799Z,19.10
2018-08-16T23:10:09.591Z,19.00
2018-08-16T23:12:36.299Z,19.00
2018-08-16T23:15:03.412Z,19.10
2018-08-16T23:17:30.165Z,19.00
2018-08-16T23:19:57.377Z,19.00
2018-08-16T23:22:24.641Z,18.90
2018-08-16T23:24:51.832Z,18.80
2018-08-16T23:27:19.076Z,18.90
2018-08-16T23:29:46.339Z,18.80
2018-08-16T23:32:13.560Z,18.90
2018-08-16T23:34:40.780Z,18.90
2018-08-16T23:37:08.035Z,18.80
2018-08-16T23:39:35.223Z,18.80
2018-08-16T23:42:02.469Z,18.80
2018-08-16T23:44:29.742Z,18.70
2018-08-16T23:46:57.080Z,18.70
2018-08-16T23:49:24.300Z,18.60
2018-08-16T23:51:51.523Z,18.60
2018-08-16T23:54:18.711Z,18.60
2018-08-16T23:56:46.192Z,18.50
2018-08-16T23:59:13.415Z,18.50
